Terminal Aerodrome Forecast
Issued by NWS Cleveland, OH

Home | Current Version | Previous Version | Text Only | Print | Product List | Glossary On
Versions: 1 2 3 4 5 6 7 8 9 10 11 12 13 14
000
FTUS41 KCLE 181700
TAFTOL
TAF
KTOL 181724Z 1818/1918 30006KT P6SM BKN045 BKN080
     FM182100 33008KT P6SM SCT050
     FM190100 36006KT P6SM BKN200
     FM190600 04006KT P6SM BKN025
     FM191300 07010KT P6SM FEW030=

USA.gov is the U.S. government's official web portal to all federal, state and local government web resources and services.